Time;durP1;ratioP1;P1;durP2;ratioP2;P2;SDS_P1;SDS_P2;PMS_P1;PMS_P2;Temp;Humidity;BMP_temperature;BMP_pressure;BME280_temperature;BME280_humidity;BME280_pressure;Samples;Min_cycle;Max_cycle;Signal;HPM_P1;HPM_P2
2021/12/29 00:02:15;;;;;;;0.10;0.10;;;9.90;99.90;;;;;;5067650;28;20203;-85
2021/12/29 00:04:41;;;;;;;0.10;0.10;;;9.90;99.90;;;;;;5068409;28;20266;-84
2021/12/29 00:07:07;;;;;;;0.00;0.00;;;9.90;99.90;;;;;;5065711;28;20563;-84
2021/12/29 00:09:36;;;;;;;0.10;0.10;;;9.90;99.90;;;;;;5066383;28;20187;-84
2021/12/29 00:12:02;;;;;;;1.23;1.13;;;9.90;99.90;;;;;;5063157;28;20224;-85
2021/12/29 00:14:27;;;;;;;0.17;0.10;;;9.90;99.90;;;;;;5064556;28;20648;-84
2021/12/29 00:16:56;;;;;;;0.27;0.27;;;9.90;99.90;;;;;;5066046;28;20187;-85
2021/12/29 00:19:21;;;;;;;1.10;0.30;;;9.90;99.90;;;;;;5066197;28;20256;-85
2021/12/29 00:21:47;;;;;;;0.10;0.10;;;9.90;99.90;;;;;;5060291;28;20682;-85
2021/12/29 00:24:13;;;;;;;0.13;0.13;;;9.90;99.90;;;;;;5062817;28;20195;-84
2021/12/29 00:26:38;;;;;;;0.03;0.03;;;9.90;99.90;;;;;;5067519;28;20296;-84
2021/12/29 00:29:04;;;;;;;0.10;0.10;;;9.90;99.90;;;;;;5067814;28;20195;-85
2021/12/29 00:31:31;;;;;;;0.17;0.17;;;9.90;99.90;;;;;;5061233;28;20200;-84
2021/12/29 00:33:58;;;;;;;0.10;0.10;;;9.80;99.90;;;;;;5065442;28;20179;-85
2021/12/29 00:36:24;;;;;;;0.60;0.40;;;9.80;99.90;;;;;;5065454;28;20210;-83
2021/12/29 00:38:49;;;;;;;0.20;0.20;;;9.80;99.90;;;;;;5064472;28;20189;-84
2021/12/29 00:41:16;;;;;;;0.10;0.10;;;9.80;99.90;;;;;;5061898;28;20191;-84
2021/12/29 00:43:44;;;;;;;0.10;0.10;;;9.80;99.90;;;;;;5065500;28;20187;-84
2021/12/29 00:46:12;;;;;;;0.10;0.10;;;9.80;99.90;;;;;;5060029;28;20184;-84
2021/12/29 00:48:41;;;;;;;0.10;0.10;;;9.80;99.90;;;;;;5065630;28;20202;-84
2021/12/29 00:51:07;;;;;;;0.13;0.13;;;9.80;99.90;;;;;;5061213;28;20552;-85
2021/12/29 00:53:33;;;;;;;0.30;0.30;;;9.80;99.90;;;;;;5064825;28;20190;-84
2021/12/29 00:55:59;;;;;;;0.10;0.10;;;9.80;99.90;;;;;;5063948;28;20206;-85
2021/12/29 00:58:25;;;;;;;0.10;0.10;;;9.80;99.90;;;;;;5064161;28;20541;-84
2021/12/29 01:00:51;;;;;;;0.20;0.20;;;9.80;99.90;;;;;;5063135;28;20238;-84
2021/12/29 01:03:16;;;;;;;0.10;0.10;;;9.90;99.90;;;;;;5061236;28;20211;-84
2021/12/29 01:05:43;;;;;;;0.10;0.10;;;9.90;99.90;;;;;;5065021;28;20186;-84
2021/12/29 01:08:10;;;;;;;0.10;0.10;;;9.90;99.90;;;;;;5064317;28;20215;-84
2021/12/29 01:10:38;;;;;;;0.27;0.27;;;9.90;99.90;;;;;;5065046;28;20278;-85
2021/12/29 01:13:06;;;;;;;0.10;0.10;;;9.90;99.90;;;;;;5067363;28;20219;-85
2021/12/29 01:15:57;;;;;;;0.30;0.30;;;9.90;99.90;;;;;;5062469;28;20724;-84
2021/12/29 01:18:25;;;;;;;1.13;0.20;;;9.90;99.90;;;;;;5065802;28;20184;-84
2021/12/29 01:20:51;;;;;;;0.10;0.10;;;9.90;99.90;;;;;;5065706;28;20186;-84
2021/12/29 01:23:17;;;;;;;0.10;0.10;;;9.90;99.90;;;;;;5058853;28;20316;-84
2021/12/29 01:25:42;;;;;;;0.10;0.10;;;9.90;99.90;;;;;;5064172;28;20189;-85
2021/12/29 01:28:08;;;;;;;2.37;0.37;;;9.90;99.90;;;;;;5065390;28;20219;-84
2021/12/29 01:30:33;;;;;;;0.10;0.10;;;9.90;99.90;;;;;;5062991;28;20188;-84
2021/12/29 01:33:05;;;;;;;0.10;0.10;;;10.00;99.90;;;;;;5066376;28;20195;-84
2021/12/29 01:35:31;;;;;;;0.97;0.97;;;10.00;99.90;;;;;;5065651;28;20184;-84
2021/12/29 01:37:56;;;;;;;0.10;0.10;;;9.90;99.90;;;;;;5062359;28;20306;-85
2021/12/29 01:40:22;;;;;;;1.37;0.57;;;10.00;99.90;;;;;;5065837;28;20577;-85
2021/12/29 01:42:48;;;;;;;0.10;0.10;;;10.00;99.90;;;;;;5061865;28;20582;-84
2021/12/29 01:45:13;;;;;;;0.10;0.10;;;10.00;99.90;;;;;;5063694;28;20216;-84
2021/12/29 01:47:39;;;;;;;0.10;0.10;;;10.00;99.90;;;;;;5063803;28;20196;-85
2021/12/29 01:50:08;;;;;;;0.93;0.20;;;9.90;99.90;;;;;;5063698;28;20244;-84
2021/12/29 01:52:38;;;;;;;0.10;0.10;;;9.90;99.90;;;;;;5066010;28;20198;-85
2021/12/29 01:55:06;;;;;;;0.10;0.10;;;10.00;99.90;;;;;;5062130;28;20708;-84
2021/12/29 01:57:32;;;;;;;0.10;0.10;;;10.00;99.90;;;;;;5065169;28;20196;-84
2021/12/29 01:59:57;;;;;;;0.00;0.00;;;10.00;99.90;;;;;;5062513;28;20199;-84
2021/12/29 02:02:23;;;;;;;0.10;0.10;;;10.00;99.90;;;;;;5061275;28;20199;-84
2021/12/29 02:04:49;;;;;;;0.20;0.20;;;10.10;99.90;;;;;;5057324;28;20283;-84
2021/12/29 02:07:14;;;;;;;0.00;0.00;;;10.10;99.90;;;;;;5060117;28;20207;-84
2021/12/29 02:09:40;;;;;;;0.10;0.10;;;10.10;99.90;;;;;;5059931;28;20195;-84
2021/12/29 02:12:07;;;;;;;0.10;0.10;;;10.10;99.90;;;;;;5065142;28;20203;-84
2021/12/29 02:14:33;;;;;;;0.17;0.17;;;10.10;99.90;;;;;;5063728;28;20207;-84
2021/12/29 02:17:00;;;;;;;0.40;0.40;;;10.10;99.90;;;;;;5063584;28;20186;-84
2021/12/29 02:19:26;;;;;;;0.10;0.10;;;10.10;99.90;;;;;;5063948;28;20184;-84
2021/12/29 02:22:05;;;;;;;0.10;0.10;;;10.10;99.90;;;;;;5062389;28;20230;-84
2021/12/29 02:24:37;;;;;;;0.10;0.10;;;10.20;99.90;;;;;;5058034;28;20183;-85
2021/12/29 02:27:04;;;;;;;0.13;0.13;;;10.20;99.90;;;;;;5056760;28;20208;-84
2021/12/29 02:29:32;;;;;;;0.10;0.10;;;10.20;99.90;;;;;;5063780;28;20278;-84
2021/12/29 02:31:57;;;;;;;0.10;0.10;;;10.20;99.90;;;;;;5062515;28;20234;-84
2021/12/29 02:34:23;;;;;;;0.10;0.10;;;10.10;99.90;;;;;;5063217;28;20207;-84
2021/12/29 02:36:48;;;;;;;0.10;0.10;;;10.00;99.90;;;;;;5065198;28;20219;-84
2021/12/29 02:39:20;;;;;;;0.10;0.10;;;10.00;99.90;;;;;;5061646;28;20179;-84
2021/12/29 02:41:52;;;;;;;0.10;0.10;;;10.00;99.90;;;;;;5063321;28;20214;-85
2021/12/29 02:44:25;;;;;;;0.10;0.10;;;9.90;99.90;;;;;;5063368;28;20182;-85
2021/12/29 02:46:50;;;;;;;0.10;0.10;;;9.90;99.90;;;;;;5059346;28;20218;-85
2021/12/29 02:49:16;;;;;;;0.30;0.30;;;10.00;99.90;;;;;;5065468;28;20654;-84
2021/12/29 02:51:42;;;;;;;0.00;0.00;;;9.90;99.90;;;;;;5064438;28;20226;-85
2021/12/29 02:54:08;;;;;;;0.10;0.10;;;10.00;99.90;;;;;;5063502;28;21163;-84
2021/12/29 02:56:34;;;;;;;4.97;0.40;;;10.00;99.90;;;;;;5063689;28;20177;-84
2021/12/29 02:59:00;;;;;;;0.00;0.00;;;10.00;99.90;;;;;;5061639;28;20277;-84
2021/12/29 03:01:27;;;;;;;0.10;0.10;;;10.10;99.90;;;;;;5061863;28;20811;-84
2021/12/29 03:03:57;;;;;;;0.10;0.10;;;10.10;99.90;;;;;;5065197;28;20183;-85
2021/12/29 03:06:22;;;;;;;0.10;0.10;;;10.10;99.90;;;;;;5064857;28;20239;-85
2021/12/29 03:08:48;;;;;;;0.10;0.10;;;10.10;99.90;;;;;;5063109;28;20178;-84
2021/12/29 03:11:14;;;;;;;0.00;0.00;;;10.10;99.90;;;;;;5063274;28;20194;-84
2021/12/29 03:13:41;;;;;;;0.20;0.20;;;10.10;99.90;;;;;;5063913;28;20181;-84
2021/12/29 03:16:07;;;;;;;1.13;0.37;;;10.10;99.90;;;;;;5057206;28;20187;-84
2021/12/29 03:18:33;;;;;;;0.10;0.10;;;10.10;99.90;;;;;;5063747;28;20618;-85
2021/12/29 03:20:59;;;;;;;0.27;0.17;;;10.10;99.90;;;;;;5065772;28;20207;-84
2021/12/29 03:23:24;;;;;;;0.10;0.10;;;10.10;99.90;;;;;;5063567;28;20223;-84
2021/12/29 03:25:51;;;;;;;0.10;0.10;;;10.10;99.90;;;;;;5066550;28;20205;-84
2021/12/29 03:28:19;;;;;;;0.17;0.17;;;10.10;99.90;;;;;;5063516;28;20211;-84
2021/12/29 03:30:48;;;;;;;0.20;0.20;;;10.20;99.90;;;;;;5061328;28;20669;-84
2021/12/29 03:33:14;;;;;;;0.10;0.10;;;10.10;99.90;;;;;;5067466;28;20280;-84
2021/12/29 03:35:43;;;;;;;0.10;0.10;;;10.10;99.90;;;;;;5067394;28;20235;-85
2021/12/29 03:38:12;;;;;;;0.33;0.10;;;10.10;99.90;;;;;;5067091;28;20187;-84
2021/12/29 03:40:38;;;;;;;0.10;0.10;;;10.10;99.90;;;;;;5064035;28;20192;-85
2021/12/29 03:43:06;;;;;;;0.20;0.20;;;10.10;99.90;;;;;;5066591;28;20204;-84
2021/12/29 03:45:31;;;;;;;0.10;0.10;;;10.10;99.90;;;;;;5066952;28;20532;-84
2021/12/29 03:47:57;;;;;;;0.10;0.10;;;10.10;99.90;;;;;;5065261;28;20210;-84
2021/12/29 03:50:22;;;;;;;0.10;0.10;;;10.00;99.90;;;;;;5065597;28;20175;-84
2021/12/29 03:52:48;;;;;;;0.10;0.10;;;10.00;99.90;;;;;;5066847;28;20210;-84
2021/12/29 03:55:14;;;;;;;0.10;0.10;;;10.00;99.90;;;;;;5068255;28;20184;-85
2021/12/29 03:57:40;;;;;;;0.10;0.10;;;10.00;99.90;;;;;;5065823;28;20186;-84
2021/12/29 04:00:12;;;;;;;0.10;0.10;;;9.90;99.90;;;;;;5066956;28;20192;-84
2021/12/29 04:02:39;;;;;;;0.10;0.10;;;9.80;99.90;;;;;;5067205;28;20206;-83
2021/12/29 04:05:06;;;;;;;0.10;0.10;;;9.80;99.90;;;;;;5065924;28;20192;-84
2021/12/29 04:07:32;;;;;;;0.10;0.10;;;9.70;99.90;;;;;;5065052;28;20201;-84
2021/12/29 04:09:59;;;;;;;0.10;0.10;;;9.70;99.90;;;;;;5066958;28;21251;-85
2021/12/29 04:12:24;;;;;;;0.10;0.10;;;9.70;99.90;;;;;;5060909;28;20202;-84
2021/12/29 04:14:50;;;;;;;0.70;0.20;;;9.70;99.90;;;;;;5067473;28;20183;-85
2021/12/29 04:17:24;;;;;;;0.10;0.10;;;9.70;99.90;;;;;;5063749;28;20195;-84
2021/12/29 04:22:34;;;;;;;0.23;0.20;;;9.70;99.90;;;;;;5068978;28;20283;-84
2021/12/29 04:24:59;;;;;;;0.20;0.20;;;9.70;99.90;;;;;;5070153;28;20191;-84
2021/12/29 04:27:26;;;;;;;0.30;0.30;;;9.70;99.90;;;;;;5061279;28;20212;-84
2021/12/29 04:29:52;;;;;;;0.20;0.20;;;9.70;99.90;;;;;;5069430;28;20187;-85
2021/12/29 04:32:18;;;;;;;0.13;0.13;;;9.70;99.90;;;;;;5071910;28;20286;-84
2021/12/29 04:34:44;;;;;;;0.13;0.13;;;9.70;99.90;;;;;;5071088;28;20192;-85
2021/12/29 04:37:10;;;;;;;0.10;0.10;;;9.70;99.90;;;;;;5066838;28;20189;-85
2021/12/29 04:39:36;;;;;;;0.40;0.40;;;9.80;99.90;;;;;;5065907;28;20186;-84
2021/12/29 04:42:01;;;;;;;0.10;0.10;;;9.80;99.90;;;;;;5067568;28;20267;-84
2021/12/29 04:44:27;;;;;;;0.10;0.10;;;9.80;99.90;;;;;;5063403;28;20236;-84
2021/12/29 04:46:54;;;;;;;0.10;0.10;;;9.80;99.90;;;;;;5065516;28;20253;-85
2021/12/29 04:49:26;;;;;;;0.23;0.23;;;9.80;99.90;;;;;;5067130;28;20187;-84
2021/12/29 04:52:02;;;;;;;0.10;0.10;;;9.80;99.90;;;;;;5066540;28;20203;-84
2021/12/29 04:54:28;;;;;;;0.10;0.10;;;9.80;99.90;;;;;;5062596;28;21176;-84
2021/12/29 04:56:55;;;;;;;0.10;0.10;;;9.80;99.90;;;;;;5063730;28;20218;-85
2021/12/29 04:59:21;;;;;;;0.43;0.43;;;9.90;99.90;;;;;;5064354;28;20206;-84
2021/12/29 05:01:47;;;;;;;0.10;0.10;;;9.90;99.90;;;;;;5065909;28;20259;-84
2021/12/29 05:04:20;;;;;;;0.10;0.10;;;9.90;99.90;;;;;;5064944;28;20671;-84
2021/12/29 05:09:30;;;;;;;0.10;0.10;;;9.90;99.90;;;;;;5067424;28;20821;-84
2021/12/29 05:11:59;;;;;;;0.10;0.10;;;10.00;99.90;;;;;;5065076;28;20213;-84
2021/12/29 05:14:24;;;;;;;0.20;0.20;;;10.00;99.90;;;;;;5065868;28;20646;-83
2021/12/29 05:16:50;;;;;;;0.20;0.20;;;10.00;99.90;;;;;;5063760;28;20268;-84
2021/12/29 05:19:16;;;;;;;0.20;0.20;;;10.00;99.90;;;;;;5064759;28;20218;-84
2021/12/29 05:21:41;;;;;;;0.20;0.20;;;10.00;99.90;;;;;;5063602;28;20301;-84
2021/12/29 05:24:07;;;;;;;0.10;0.10;;;10.00;99.90;;;;;;5061588;28;20232;-84
2021/12/29 05:26:33;;;;;;;0.10;0.10;;;10.00;99.90;;;;;;5062810;28;20666;-84
2021/12/29 05:28:59;;;;;;;0.20;0.20;;;10.10;99.90;;;;;;5065553;28;20627;-84
2021/12/29 05:31:25;;;;;;;0.10;0.10;;;10.10;99.90;;;;;;5063973;28;20246;-84
2021/12/29 05:33:50;;;;;;;0.10;0.10;;;10.10;99.90;;;;;;5065550;28;20191;-84
2021/12/29 05:36:16;;;;;;;0.10;0.10;;;10.10;99.90;;;;;;5061588;28;20284;-84
2021/12/29 05:38:42;;;;;;;0.10;0.10;;;10.10;99.90;;;;;;5060912;28;20225;-82
2021/12/29 05:41:07;;;;;;;0.10;0.10;;;10.10;99.90;;;;;;5065140;28;20189;-83
2021/12/29 05:43:33;;;;;;;0.10;0.10;;;10.00;99.90;;;;;;5069177;28;20188;-83
2021/12/29 05:45:58;;;;;;;0.20;0.20;;;10.00;99.90;;;;;;5066713;28;20279;-83
2021/12/29 05:48:24;;;;;;;0.20;0.20;;;10.00;99.90;;;;;;5059175;28;20227;-84
2021/12/29 05:50:50;;;;;;;0.10;0.10;;;10.00;99.90;;;;;;5067690;28;20670;-83
2021/12/29 05:53:15;;;;;;;0.30;0.20;;;10.00;99.90;;;;;;5066627;28;20715;-83
2021/12/29 05:55:41;;;;;;;0.20;0.20;;;10.00;99.90;;;;;;5067655;28;20179;-83
2021/12/29 05:58:09;;;;;;;0.10;0.10;;;10.00;99.90;;;;;;5058945;28;20199;-83
2021/12/29 06:00:37;;;;;;;0.30;0.30;;;10.00;99.90;;;;;;5060415;28;20189;-83
2021/12/29 06:03:03;;;;;;;0.10;0.10;;;10.00;99.90;;;;;;5065923;28;20206;-83
2021/12/29 06:05:28;;;;;;;0.20;0.20;;;10.00;99.90;;;;;;5064051;28;20720;-83
2021/12/29 06:07:54;;;;;;;0.10;0.10;;;9.90;99.90;;;;;;5066595;28;20288;-84
2021/12/29 06:10:20;;;;;;;0.10;0.10;;;9.90;99.90;;;;;;5062118;28;20178;-83
2021/12/29 06:12:46;;;;;;;0.17;0.17;;;9.90;99.90;;;;;;5062983;28;20644;-83
2021/12/29 06:15:11;;;;;;;0.10;0.10;;;9.80;99.90;;;;;;5064438;28;20180;-84
2021/12/29 06:17:38;;;;;;;0.37;0.23;;;9.80;99.90;;;;;;5063293;28;20184;-83
2021/12/29 06:20:05;;;;;;;0.10;0.10;;;9.80;99.90;;;;;;5061315;28;20188;-84
2021/12/29 06:22:30;;;;;;;0.00;0.00;;;9.70;99.90;;;;;;5063239;28;20205;-84
2021/12/29 06:24:56;;;;;;;0.10;0.10;;;9.70;99.90;;;;;;5061792;28;20664;-84
2021/12/29 06:27:23;;;;;;;0.57;0.37;;;9.60;99.90;;;;;;5058406;28;20204;-84
2021/12/29 06:29:49;;;;;;;0.00;0.00;;;9.60;99.90;;;;;;5064724;28;21216;-84
2021/12/29 06:32:15;;;;;;;0.00;0.00;;;9.60;99.90;;;;;;5064265;28;20567;-84
2021/12/29 06:34:41;;;;;;;0.13;0.13;;;9.50;99.90;;;;;;5062731;28;20185;-83
2021/12/29 06:37:12;;;;;;;0.20;0.20;;;9.60;99.90;;;;;;5062907;28;20656;-85
2021/12/29 06:39:39;;;;;;;0.10;0.10;;;9.60;99.90;;;;;;5062755;28;20187;-84
2021/12/29 06:42:05;;;;;;;0.10;0.10;;;9.50;99.90;;;;;;5063784;28;20890;-84
2021/12/29 06:44:30;;;;;;;0.10;0.10;;;9.60;99.90;;;;;;5064411;28;20183;-81
2021/12/29 06:46:56;;;;;;;0.10;0.10;;;9.50;99.90;;;;;;5055142;28;20206;-82
2021/12/29 06:49:22;;;;;;;0.10;0.10;;;9.50;99.90;;;;;;5063786;28;20174;-81
2021/12/29 06:51:48;;;;;;;0.10;0.10;;;9.50;99.90;;;;;;5066318;28;20212;-81
2021/12/29 06:54:14;;;;;;;0.23;0.23;;;9.60;99.90;;;;;;5068918;28;20684;-82
2021/12/29 06:56:40;;;;;;;0.10;0.10;;;9.60;99.90;;;;;;5065549;28;20182;-81
2021/12/29 06:59:06;;;;;;;0.10;0.10;;;9.60;99.90;;;;;;5069491;28;20197;-81
2021/12/29 07:01:31;;;;;;;0.10;0.10;;;9.60;99.90;;;;;;5068028;28;20241;-81
2021/12/29 07:03:57;;;;;;;0.30;0.20;;;9.60;99.90;;;;;;5069876;28;20254;-81
2021/12/29 07:06:23;;;;;;;0.10;0.10;;;9.60;99.90;;;;;;5061369;28;20188;-81
2021/12/29 07:08:48;;;;;;;0.10;0.10;;;9.60;99.90;;;;;;5070274;28;20569;-81
2021/12/29 07:11:14;;;;;;;7.40;0.40;;;9.50;99.90;;;;;;5067239;28;20186;-82
2021/12/29 07:13:41;;;;;;;0.10;0.10;;;9.50;99.90;;;;;;5064027;28;20590;-82
2021/12/29 07:16:06;;;;;;;0.20;0.20;;;9.60;99.90;;;;;;5069195;28;20308;-81
2021/12/29 07:18:32;;;;;;;0.30;0.30;;;9.60;99.90;;;;;;5065746;28;20965;-82
2021/12/29 07:20:57;;;;;;;0.10;0.10;;;9.50;99.90;;;;;;5072020;28;20246;-81
2021/12/29 07:23:23;;;;;;;0.10;0.10;;;9.50;99.90;;;;;;5064182;28;20516;-82
2021/12/29 07:25:48;;;;;;;0.13;0.13;;;9.50;99.90;;;;;;5064980;28;20256;-82
2021/12/29 07:28:14;;;;;;;0.10;0.10;;;9.50;99.90;;;;;;5064017;28;20328;-82
2021/12/29 07:30:40;;;;;;;0.17;0.17;;;9.50;99.90;;;;;;5063280;28;20193;-82
2021/12/29 07:33:05;;;;;;;0.10;0.10;;;9.50;99.90;;;;;;5067993;28;20206;-82
2021/12/29 07:35:31;;;;;;;0.10;0.10;;;9.50;99.90;;;;;;5059401;28;20195;-82
2021/12/29 07:37:56;;;;;;;0.10;0.10;;;9.50;99.90;;;;;;5064512;28;20203;-82
2021/12/29 07:40:22;;;;;;;0.10;0.10;;;9.50;99.90;;;;;;5065377;28;20191;-82
2021/12/29 07:42:48;;;;;;;0.20;0.20;;;9.50;99.90;;;;;;5067769;28;20280;-82
2021/12/29 07:45:14;;;;;;;0.10;0.10;;;9.50;99.90;;;;;;5066732;28;20210;-82
2021/12/29 07:47:46;;;;;;;0.27;0.27;;;9.50;99.90;;;;;;5067362;28;20748;-82
2021/12/29 07:50:12;;;;;;;0.10;0.10;;;9.50;99.90;;;;;;5067434;28;20179;-81
2021/12/29 07:52:38;;;;;;;0.10;0.10;;;9.60;99.90;;;;;;5069479;28;20201;-82
2021/12/29 07:55:04;;;;;;;0.10;0.10;;;9.60;99.90;;;;;;5065216;28;20186;-82
2021/12/29 07:57:29;;;;;;;0.00;0.00;;;9.60;99.90;;;;;;5068923;28;20285;-82
2021/12/29 07:59:55;;;;;;;0.03;0.03;;;9.70;99.90;;;;;;5069187;28;20352;-81
2021/12/29 08:02:27;;;;;;;0.43;0.30;;;9.70;99.90;;;;;;5064879;28;20211;-81
2021/12/29 08:04:58;;;;;;;0.10;0.10;;;9.60;99.90;;;;;;5068097;28;20173;-82
2021/12/29 08:07:25;;;;;;;0.10;0.10;;;9.60;99.90;;;;;;5065729;28;20219;-81
2021/12/29 08:09:51;;;;;;;3.60;0.50;;;9.70;99.90;;;;;;5062703;28;20194;-82
2021/12/29 08:12:17;;;;;;;0.10;0.10;;;9.70;99.90;;;;;;5068466;28;20234;-82
2021/12/29 08:14:45;;;;;;;0.00;0.00;;;9.80;99.90;;;;;;5068681;28;20651;-82
2021/12/29 08:17:11;;;;;;;0.20;0.20;;;9.80;99.90;;;;;;5059664;28;20189;-82
2021/12/29 08:19:37;;;;;;;0.10;0.10;;;9.80;99.90;;;;;;5071510;28;20749;-82
2021/12/29 08:22:03;;;;;;;0.20;0.20;;;9.90;99.90;;;;;;5067992;28;20215;-82
2021/12/29 08:24:28;;;;;;;0.20;0.20;;;9.90;99.90;;;;;;5063628;28;20704;-82
2021/12/29 08:26:54;;;;;;;0.10;0.10;;;9.90;99.90;;;;;;5068304;28;20261;-82
2021/12/29 08:29:19;;;;;;;0.10;0.10;;;9.90;99.90;;;;;;5064157;28;20185;-81
2021/12/29 08:31:45;;;;;;;0.10;0.10;;;10.00;99.90;;;;;;5062918;28;20315;-81
2021/12/29 08:34:10;;;;;;;0.30;0.30;;;10.00;99.90;;;;;;5067079;28;20180;-81
2021/12/29 08:36:36;;;;;;;0.20;0.20;;;10.00;99.90;;;;;;5061691;28;20219;-81
2021/12/29 08:39:02;;;;;;;1.70;0.33;;;10.00;99.90;;;;;;5068180;28;20209;-81
2021/12/29 08:41:28;;;;;;;0.10;0.10;;;10.10;99.90;;;;;;5063791;28;20211;-81
2021/12/29 08:43:53;;;;;;;0.10;0.10;;;10.10;99.90;;;;;;5061008;28;20339;-83
2021/12/29 08:46:19;;;;;;;0.73;0.73;;;10.00;99.90;;;;;;5062473;28;20226;-84
2021/12/29 08:48:46;;;;;;;0.10;0.10;;;10.00;99.90;;;;;;5061575;28;20212;-83
2021/12/29 08:51:11;;;;;;;0.10;0.10;;;10.00;99.90;;;;;;5067585;28;20187;-84
2021/12/29 08:53:37;;;;;;;0.20;0.20;;;10.10;99.90;;;;;;5062819;28;20241;-83
2021/12/29 08:56:05;;;;;;;0.17;0.10;;;10.10;99.90;;;;;;5066360;28;20652;-83
2021/12/29 08:58:31;;;;;;;0.20;0.20;;;10.10;99.90;;;;;;5066835;28;20261;-83
2021/12/29 09:00:58;;;;;;;0.20;0.20;;;10.00;99.90;;;;;;5059566;28;20200;-84
2021/12/29 09:03:23;;;;;;;0.00;0.00;;;10.00;99.90;;;;;;5066007;28;20326;-83
2021/12/29 09:05:49;;;;;;;0.20;0.20;;;10.00;99.90;;;;;;5068413;28;20251;-84
2021/12/29 09:08:15;;;;;;;0.20;0.20;;;10.00;99.90;;;;;;5066859;28;20323;-83
2021/12/29 09:10:42;;;;;;;0.30;0.20;;;10.00;99.90;;;;;;5064885;28;20198;-84
2021/12/29 09:13:07;;;;;;;0.20;0.20;;;10.00;99.90;;;;;;5059728;28;20309;-83
2021/12/29 09:15:33;;;;;;;0.20;0.10;;;10.00;99.90;;;;;;5068017;28;20266;-83
2021/12/29 09:18:02;;;;;;;0.10;0.10;;;10.10;99.90;;;;;;5064434;28;20230;-84
2021/12/29 09:20:31;;;;;;;0.10;0.10;;;10.10;99.90;;;;;;5066774;28;20185;-83
2021/12/29 09:23:04;;;;;;;0.67;0.40;;;10.10;99.90;;;;;;5067123;28;21070;-83
2021/12/29 09:25:30;;;;;;;0.10;0.10;;;10.10;99.90;;;;;;5065187;28;20189;-83
2021/12/29 09:27:56;;;;;;;0.43;0.43;;;10.20;99.90;;;;;;5060317;28;20264;-84
2021/12/29 09:30:25;;;;;;;0.10;0.10;;;10.20;99.90;;;;;;5065122;28;20180;-84
2021/12/29 09:32:51;;;;;;;0.07;0.07;;;10.20;99.90;;;;;;5064208;28;20207;-83
2021/12/29 09:35:17;;;;;;;0.10;0.10;;;10.30;99.90;;;;;;5082576;28;20685;-83
2021/12/29 09:37:43;;;;;;;0.10;0.10;;;10.40;99.90;;;;;;5064637;28;20544;-83
2021/12/29 09:40:10;;;;;;;0.10;0.10;;;10.40;99.90;;;;;;5064302;28;20195;-83
2021/12/29 09:42:36;;;;;;;0.20;0.20;;;10.50;99.90;;;;;;5064870;28;20207;-83
2021/12/29 09:45:03;;;;;;;0.20;0.20;;;10.50;99.90;;;;;;5065862;28;20199;-84
2021/12/29 09:47:29;;;;;;;0.20;0.20;;;10.60;99.90;;;;;;5065601;28;20636;-83
2021/12/29 09:49:55;;;;;;;0.40;0.30;;;10.60;99.90;;;;;;5065263;28;20195;-83
2021/12/29 09:52:21;;;;;;;0.60;0.60;;;10.60;99.90;;;;;;5064838;28;20705;-83
2021/12/29 09:54:46;;;;;;;0.30;0.30;;;10.70;99.90;;;;;;5062125;28;20189;-83
2021/12/29 09:57:12;;;;;;;0.83;0.27;;;10.60;99.90;;;;;;5065178;28;20253;-84
2021/12/29 09:59:37;;;;;;;0.40;0.40;;;10.70;99.90;;;;;;5067193;28;20200;-84
2021/12/29 10:02:04;;;;;;;4.47;0.40;;;10.70;99.90;;;;;;5063289;28;20301;-84
2021/12/29 10:04:34;;;;;;;0.30;0.30;;;10.70;99.90;;;;;;5060478;28;20187;-84
2021/12/29 10:07:10;;;;;;;0.20;0.20;;;10.70;99.90;;;;;;5063540;28;20221;-83
2021/12/29 10:09:37;;;;;;;0.60;0.30;;;10.70;99.90;;;;;;5061131;28;20683;-84
2021/12/29 10:12:08;;;;;;;0.10;0.10;;;10.70;99.90;;;;;;5060796;28;20213;-83
2021/12/29 10:14:34;;;;;;;0.17;0.17;;;10.70;99.90;;;;;;5063962;28;20195;-84
2021/12/29 10:16:59;;;;;;;0.27;0.27;;;10.80;99.90;;;;;;5063858;28;20197;-84
2021/12/29 10:19:25;;;;;;;0.10;0.10;;;10.80;99.90;;;;;;5057450;28;20256;-83
2021/12/29 10:21:51;;;;;;;0.10;0.10;;;10.80;99.90;;;;;;5061184;28;20215;-82
2021/12/29 10:24:19;;;;;;;0.10;0.10;;;10.70;99.90;;;;;;5062584;28;20204;-83
2021/12/29 10:26:47;;;;;;;0.10;0.10;;;10.80;99.90;;;;;;5058446;28;20188;-82
2021/12/29 10:29:16;;;;;;;1.30;0.40;;;10.80;99.90;;;;;;5064948;28;20172;-82
2021/12/29 10:31:48;;;;;;;0.13;0.13;;;10.70;99.90;;;;;;5065711;28;20231;-82
2021/12/29 10:34:18;;;;;;;0.20;0.20;;;10.80;99.90;;;;;;5065022;28;20188;-82
2021/12/29 10:36:45;;;;;;;0.40;0.30;;;10.80;99.90;;;;;;5061409;28;20299;-82
2021/12/29 10:39:22;;;;;;;0.10;0.10;;;10.80;99.90;;;;;;5061427;28;20177;-82
2021/12/29 10:41:50;;;;;;;1.40;1.30;;;10.80;99.90;;;;;;5063969;28;20204;-82
2021/12/29 10:44:23;;;;;;;0.23;0.23;;;10.80;99.90;;;;;;5060407;28;20179;-82
2021/12/29 10:46:48;;;;;;;1.40;1.40;;;10.80;99.90;;;;;;5064838;28;20326;-82
2021/12/29 10:49:14;;;;;;;0.20;0.20;;;10.80;99.90;;;;;;5057732;28;20280;-82
2021/12/29 10:51:46;;;;;;;0.30;0.30;;;10.90;99.90;;;;;;5061821;28;20200;-82
2021/12/29 10:54:19;;;;;;;0.17;0.17;;;10.90;99.90;;;;;;5063489;28;20210;-82
2021/12/29 10:56:56;;;;;;;0.10;0.10;;;10.90;99.90;;;;;;5063057;28;20195;-82
2021/12/29 10:59:25;;;;;;;0.10;0.10;;;10.90;99.90;;;;;;5061349;28;20196;-82
2021/12/29 11:01:52;;;;;;;0.10;0.10;;;10.90;99.90;;;;;;5065192;28;20265;-82
2021/12/29 11:04:19;;;;;;;0.20;0.20;;;10.80;99.90;;;;;;5064873;28;20222;-82
2021/12/29 11:06:46;;;;;;;0.10;0.10;;;10.80;99.90;;;;;;5064390;28;20198;-82
2021/12/29 11:09:15;;;;;;;0.10;0.10;;;10.70;99.90;;;;;;5064509;28;20214;-82
2021/12/29 11:11:46;;;;;;;0.10;0.10;;;10.70;99.90;;;;;;5063866;28;20206;-82
2021/12/29 11:14:18;;;;;;;7.90;0.83;;;10.80;99.90;;;;;;5062750;28;20573;-83
2021/12/29 11:16:46;;;;;;;0.23;0.23;;;10.90;99.90;;;;;;5060540;28;20279;-82
2021/12/29 11:19:12;;;;;;;0.10;0.10;;;10.90;99.90;;;;;;5054459;28;20768;-83
2021/12/29 11:21:40;;;;;;;0.27;0.27;;;10.90;99.90;;;;;;5064754;28;20209;-82
2021/12/29 11:24:23;;;;;;;0.20;0.20;;;11.00;99.90;;;;;;5064574;28;20199;-82
2021/12/29 11:26:52;;;;;;;0.30;0.30;;;11.00;99.90;;;;;;5069791;28;20712;-82
2021/12/29 11:29:21;;;;;;;0.10;0.10;;;11.00;99.90;;;;;;5060512;28;20331;-83
2021/12/29 11:31:57;;;;;;;0.10;0.10;;;11.00;99.90;;;;;;5062364;28;20220;-82
2021/12/29 11:34:27;;;;;;;0.10;0.10;;;10.90;99.90;;;;;;5061627;28;20258;-82
2021/12/29 11:37:14;;;;;;;0.30;0.30;;;11.00;99.90;;;;;;5061870;28;20985;-83
2021/12/29 11:39:42;;;;;;;0.40;0.27;;;10.90;99.90;;;;;;5066097;28;20178;-82
2021/12/29 11:42:08;;;;;;;0.10;0.10;;;11.00;99.90;;;;;;5067970;28;21028;-82
2021/12/29 11:44:33;;;;;;;0.50;0.50;;;11.10;99.90;;;;;;5061419;28;20187;-82
2021/12/29 11:46:59;;;;;;;0.10;0.10;;;11.10;99.90;;;;;;5063155;28;20213;-83
2021/12/29 11:49:25;;;;;;;0.30;0.30;;;11.20;99.90;;;;;;5066133;28;20189;-82
2021/12/29 11:51:57;;;;;;;0.10;0.10;;;11.20;99.90;;;;;;5061644;28;20683;-82
2021/12/29 11:54:34;;;;;;;0.10;0.10;;;11.20;99.90;;;;;;5066248;28;20188;-82
2021/12/29 11:57:10;;;;;;;0.20;0.20;;;11.30;99.90;;;;;;5067059;28;20187;-82
2021/12/29 11:59:36;;;;;;;0.10;0.10;;;11.40;99.90;;;;;;5064796;28;25339;-82
2021/12/29 12:02:02;;;;;;;0.20;0.20;;;11.40;99.90;;;;;;5064738;28;20219;-82
2021/12/29 12:04:29;;;;;;;0.97;0.40;;;11.40;99.90;;;;;;5063109;28;20197;-82
2021/12/29 12:07:04;;;;;;;1.03;0.77;;;11.50;99.90;;;;;;5065107;28;20199;-82
2021/12/29 12:09:44;;;;;;;0.10;0.10;;;11.50;99.90;;;;;;5061848;28;20183;-82
2021/12/29 12:12:12;;;;;;;0.10;0.10;;;11.60;99.90;;;;;;5067538;28;20239;-82
2021/12/29 12:14:48;;;;;;;0.17;0.17;;;11.70;99.90;;;;;;5067821;28;20176;-82
2021/12/29 12:17:19;;;;;;;0.30;0.30;;;11.80;99.90;;;;;;5061958;28;20184;-82
2021/12/29 12:19:57;;;;;;;0.40;0.40;;;11.80;99.90;;;;;;5067094;28;20186;-81
2021/12/29 12:22:23;;;;;;;0.20;0.20;;;11.80;99.90;;;;;;5066450;28;20295;-81
2021/12/29 12:24:51;;;;;;;0.10;0.10;;;11.80;99.90;;;;;;5058756;28;20299;-82
2021/12/29 12:27:36;;;;;;;0.27;0.27;;;11.70;99.90;;;;;;5067014;28;20266;-82
2021/12/29 12:30:23;;;;;;;0.10;0.10;;;11.80;99.90;;;;;;5065997;28;20272;-82
2021/12/29 12:32:54;;;;;;;0.10;0.10;;;11.70;99.90;;;;;;5066099;28;20783;-82
2021/12/29 12:35:36;;;;;;;0.20;0.20;;;11.70;99.90;;;;;;5069358;28;20192;-82
2021/12/29 12:38:22;;;;;;;0.20;0.20;;;11.70;99.90;;;;;;5066137;28;20185;-82
2021/12/29 12:41:06;;;;;;;0.23;0.20;;;11.70;99.90;;;;;;5067414;28;20200;-82
2021/12/29 12:43:33;;;;;;;3.27;0.37;;;11.60;99.90;;;;;;5067456;28;20205;-82
2021/12/29 12:45:59;;;;;;;0.10;0.10;;;11.60;99.90;;;;;;5063874;28;20187;-83
2021/12/29 12:48:28;;;;;;;0.97;0.20;;;11.60;99.90;;;;;;5061913;28;20211;-82
2021/12/29 12:50:56;;;;;;;0.20;0.20;;;11.60;99.90;;;;;;5064606;28;20189;-82
2021/12/29 12:53:36;;;;;;;0.10;0.10;;;11.50;99.90;;;;;;5067490;28;20215;-81
2021/12/29 12:56:06;;;;;;;0.10;0.10;;;11.60;99.90;;;;;;5066470;28;20182;-82
2021/12/29 12:58:44;;;;;;;0.87;0.73;;;11.60;99.90;;;;;;5084306;28;20268;-81